Time;durP1;ratioP1;P1;durP2;ratioP2;P2;SDS_P1;SDS_P2;PMS_P1;PMS_P2;Temp;Humidity;BMP_temperature;BMP_pressure;BME280_temperature;BME280_humidity;BME280_pressure;Samples;Min_cycle;Max_cycle;Signal;HPM_P1;HPM_P2
2022/04/09 00:00:22;;;;;;;6.80;5.50;;;;;;;6.94;63.67;98054.25;127761;1290;98042;-78
2022/04/09 00:03:37;;;;;;;12.50;5.50;;;;;;;6.92;63.91;98054.96;127664;1290;108713;-79
2022/04/09 00:06:40;;;;;;;8.80;5.50;;;;;;;6.95;64.11;98046.32;127677;1290;98483;-76
2022/04/09 00:09:43;;;;;;;7.90;5.20;;;;;;;7.00;63.88;98037.16;127687;1290;98658;-77
2022/04/09 00:12:46;;;;;;;7.30;5.00;;;;;;;7.04;64.04;98034.05;127749;1290;98025;-79
2022/04/09 00:15:49;;;;;;;8.40;6.60;;;;;;;7.06;64.15;98031.73;127786;1290;108853;-80
2022/04/09 00:18:52;;;;;;;7.60;5.70;;;;;;;7.05;64.24;98025.88;127709;1291;99857;-78
2022/04/09 00:21:55;;;;;;;8.10;5.50;;;;;;;7.01;64.34;98027.67;127929;1290;98020;-78
2022/04/09 00:24:57;;;;;;;9.20;5.80;;;;;;;7.00;64.42;98026.77;127589;1290;180331;-81
2022/04/09 00:28:00;;;;;;;6.80;5.40;;;;;;;6.95;64.57;98030.21;127796;1290;98037;-79
2022/04/09 00:31:03;;;;;;;7.40;5.70;;;;;;;6.91;64.74;98030.41;127806;1290;98081;-79
2022/04/09 00:34:07;;;;;;;8.30;6.50;;;;;;;6.87;64.79;98029.69;127755;1290;99313;-81
2022/04/09 00:37:09;;;;;;;8.30;6.20;;;;;;;6.84;64.83;98027.98;127676;1291;98790;-79
2022/04/09 00:40:14;;;;;;;9.10;5.90;;;;;;;6.82;64.98;98029.11;127803;1290;98116;-80
2022/04/09 00:43:16;;;;;;;7.20;5.70;;;;;;;6.82;65.24;98027.67;127900;1290;108482;-79
2022/04/09 00:46:19;;;;;;;7.80;5.10;;;;;;;6.86;65.20;98028.00;127505;1291;98092;-77
2022/04/09 00:49:22;;;;;;;7.50;5.50;;;;;;;6.90;65.32;98028.48;127681;1290;99249;-80
2022/04/09 00:52:26;;;;;;;8.50;6.10;;;;;;;6.93;65.29;98024.47;127624;1290;98146;-78
2022/04/09 00:58:55;;;;;;;8.00;6.00;;;;;;;6.96;65.24;98019.45;128027;1290;108763;-81
2022/04/09 01:01:58;;;;;;;8.30;5.70;;;;;;;6.96;65.48;98024.79;127894;1290;108852;-81
2022/04/09 01:05:02;;;;;;;9.20;5.30;;;;;;;6.97;65.58;98032.30;127988;1290;98443;-82
2022/04/09 01:08:06;;;;;;;7.30;5.30;;;;;;;6.97;65.49;98040.75;127802;1290;108827;-81
2022/04/09 01:11:11;;;;;;;6.80;4.50;;;;;;;6.94;65.66;98037.93;127866;1290;109054;-80
2022/04/09 01:14:14;;;;;;;6.10;4.20;;;;;;;6.94;65.73;98037.41;127872;1290;108913;-80
2022/04/09 01:17:17;;;;;;;7.40;4.90;;;;;;;6.95;65.80;98024.58;127691;1291;99219;-80
2022/04/09 01:20:22;;;;;;;5.80;4.90;;;;;;;6.98;65.74;98024.03;128300;1289;108742;-81
2022/04/09 01:23:28;;;;;;;23.20;14.90;;;;;;;7.03;65.84;98012.85;128113;1290;107755;-81
2022/04/09 01:26:31;;;;;;;9.00;6.20;;;;;;;7.06;66.01;98009.74;127881;1291;107831;-80
2022/04/09 01:29:36;;;;;;;9.60;5.60;;;;;;;7.08;65.97;98020.54;128057;1290;108866;-79
2022/04/09 01:32:40;;;;;;;6.50;4.80;;;;;;;7.09;66.02;98028.17;128056;1289;108783;-80
2022/04/09 01:35:44;;;;;;;7.40;5.50;;;;;;;7.08;66.07;98029.70;127971;1290;108716;-80
2022/04/09 01:38:47;;;;;;;8.30;5.10;;;;;;;7.08;66.24;98028.48;127925;1290;108947;-79
2022/04/09 01:41:51;;;;;;;6.90;4.70;;;;;;;7.04;66.20;98033.58;127854;1290;108818;-79
2022/04/09 01:44:55;;;;;;;6.90;5.10;;;;;;;7.00;66.33;98027.48;127811;1290;108950;-79
2022/04/09 01:48:00;;;;;;;6.90;5.20;;;;;;;6.96;66.47;98016.84;127876;1290;108692;-80
2022/04/09 01:51:05;;;;;;;6.40;4.60;;;;;;;6.94;66.54;98010.08;127660;1291;107180;-79
2022/04/09 01:54:08;;;;;;;6.50;4.80;;;;;;;6.93;66.72;98013.63;127976;1290;98519;-80
2022/04/09 01:57:11;;;;;;;6.90;5.00;;;;;;;6.98;66.74;98005.85;128135;1290;108804;-78
2022/04/09 02:00:17;;;;;;;7.70;5.90;;;;;;;7.04;66.71;97998.41;128163;1290;108727;-79
2022/04/09 02:03:21;;;;;;;6.70;5.00;;;;;;;7.07;66.55;98000.61;127812;1290;108100;-78
2022/04/09 02:06:25;;;;;;;6.50;5.10;;;;;;;7.09;66.67;97997.58;127780;1290;98471;-77
2022/04/09 02:09:28;;;;;;;6.80;5.20;;;;;;;7.10;66.85;97994.85;127629;1290;108816;-78
2022/04/09 02:12:32;;;;;;;7.10;5.30;;;;;;;7.10;66.88;98002.81;127643;1290;107314;-80
2022/04/09 02:15:35;;;;;;;7.80;5.60;;;;;;;7.11;66.80;98003.76;128250;1290;108753;-80
2022/04/09 02:18:38;;;;;;;7.40;5.40;;;;;;;7.11;67.06;97997.59;128182;1290;99089;-81
2022/04/09 02:21:41;;;;;;;6.80;5.40;;;;;;;7.07;66.99;97990.17;128097;1290;99216;-81
2022/04/09 02:24:44;;;;;;;6.50;4.90;;;;;;;7.05;67.14;97992.64;128110;1289;98040;-80
2022/04/09 02:27:47;;;;;;;6.60;4.50;;;;;;;7.03;67.16;97997.59;128054;1290;101490;-80
2022/04/09 02:30:53;;;;;;;6.10;4.70;;;;;;;7.05;67.26;98001.98;127984;1290;108971;-78
2022/04/09 02:34:05;;;;;;;7.50;4.80;;;;;;;7.10;67.23;97992.96;128059;1290;108130;-80
2022/04/09 02:37:08;;;;;;;7.00;4.70;;;;;;;7.12;67.27;97986.31;127801;1290;108772;-79
2022/04/09 02:40:12;;;;;;;7.40;5.10;;;;;;;7.14;67.33;97998.83;127809;1290;98789;-79
2022/04/09 02:43:16;;;;;;;7.10;5.00;;;;;;;7.17;67.29;98004.20;127938;1290;108863;-80
2022/04/09 02:46:20;;;;;;;7.00;5.00;;;;;;;7.18;67.19;98006.98;128108;1290;108886;-79
2022/04/09 02:49:23;;;;;;;7.70;5.50;;;;;;;7.15;67.33;98014.70;128014;1290;108832;-79
2022/04/09 02:52:27;;;;;;;7.70;5.60;;;;;;;7.14;67.61;98018.73;127939;1290;109705;-80
2022/04/09 02:55:31;;;;;;;8.00;5.50;;;;;;;7.15;67.52;98028.34;128218;1290;108827;-81
2022/04/09 02:58:34;;;;;;;6.60;4.70;;;;;;;7.12;67.60;98043.42;127984;1290;97994;-80
2022/04/09 03:01:37;;;;;;;7.50;4.60;;;;;;;7.10;67.62;98046.09;127893;1290;98567;-80
2022/04/09 03:04:40;;;;;;;5.90;4.70;;;;;;;7.13;67.88;98041.55;127915;1290;99773;-81
2022/04/09 03:07:43;;;;;;;7.20;4.90;;;;;;;7.16;67.87;98037.23;127919;1290;98010;-81
2022/04/09 03:10:46;;;;;;;7.80;5.30;;;;;;;7.21;67.81;98040.92;127690;1290;99204;-78
2022/04/09 03:13:48;;;;;;;7.00;5.10;;;;;;;7.23;68.01;98049.23;127748;1290;98873;-82
2022/04/09 03:16:51;;;;;;;6.00;4.90;;;;;;;7.24;67.88;98047.36;127770;1290;99315;-81
2022/04/09 03:19:55;;;;;;;6.90;5.40;;;;;;;7.24;68.18;98036.83;128035;1290;98125;-79
2022/04/09 03:22:58;;;;;;;5.90;4.60;;;;;;;7.23;68.22;98037.92;128067;1290;108966;-81
2022/04/09 03:26:07;;;;;;;7.60;5.20;;;;;;;7.22;68.09;98038.13;127766;1290;108753;-80
2022/04/09 03:29:14;;;;;;;7.40;5.50;;;;;;;7.20;68.30;98035.54;128096;1290;108791;-78
2022/04/09 03:32:19;;;;;;;8.30;5.50;;;;;;;7.16;68.38;98047.18;128067;1290;108898;-80
2022/04/09 03:35:22;;;;;;;9.00;5.40;;;;;;;7.14;68.48;98050.02;127798;1290;108894;-84
2022/04/09 03:38:25;;;;;;;8.50;5.40;;;;;;;7.15;68.49;98050.98;128035;1290;108817;-76
2022/04/09 03:41:31;;;;;;;8.40;5.90;;;;;;;7.18;68.59;98057.48;127757;1290;109233;-75
2022/04/09 03:44:36;;;;;;;9.50;6.10;;;;;;;7.21;68.53;98060.32;127739;1290;108852;-76
2022/04/09 03:47:40;;;;;;;9.60;6.50;;;;;;;7.21;68.76;98065.86;127905;1290;109277;-76
2022/04/09 03:50:47;;;;;;;8.60;6.80;;;;;;;7.09;69.21;98076.23;127728;1290;108850;-76
2022/04/09 03:53:52;;;;;;;9.10;7.30;;;;;;;6.96;69.18;98075.53;127789;1290;108784;-75
2022/04/09 03:56:56;;;;;;;10.20;7.50;;;;;;;6.92;69.25;98080.95;127804;1289;98471;-75
2022/04/09 04:00:06;;;;;;;10.70;7.40;;;;;;;6.94;69.34;98084.04;128043;1290;108763;-76
2022/04/09 04:03:16;;;;;;;9.80;6.90;;;;;;;6.97;69.33;98085.95;128046;1290;108793;-80
2022/04/09 04:06:20;;;;;;;9.50;7.50;;;;;;;6.99;69.39;98096.94;128249;1290;98462;-79
2022/04/09 04:09:24;;;;;;;9.40;6.70;;;;;;;7.02;69.37;98101.44;128084;1290;108130;-79
2022/04/09 04:12:30;;;;;;;9.70;7.60;;;;;;;7.04;68.98;98099.51;128021;1290;108720;-80
2022/04/09 04:15:34;;;;;;;10.50;7.90;;;;;;;7.08;68.94;98105.59;128209;1290;108786;-78
2022/04/09 04:18:37;;;;;;;10.70;8.10;;;;;;;7.12;69.16;98114.16;127959;1289;107831;-76
2022/04/09 04:21:40;;;;;;;13.20;8.80;;;;;;;7.12;69.04;98114.83;128011;1290;99766;-76
2022/04/09 04:24:44;;;;;;;11.60;8.40;;;;;;;7.10;69.13;98105.70;127908;1289;108810;-77
2022/04/09 04:27:49;;;;;;;12.40;9.30;;;;;;;7.00;69.26;98100.88;127947;1290;98036;-76
2022/04/09 04:30:52;;;;;;;11.30;7.90;;;;;;;6.88;69.46;98104.21;127755;1289;108963;-77
2022/04/09 04:33:57;;;;;;;11.20;7.90;;;;;;;6.77;70.17;98106.09;127737;1290;108710;-78
2022/04/09 04:36:59;;;;;;;12.10;8.00;;;;;;;6.51;70.34;98103.96;128259;1290;99212;-80
2022/04/09 04:40:03;;;;;;;10.40;7.00;;;;;;;6.27;70.52;98105.57;128014;1290;99012;-79
2022/04/09 04:43:07;;;;;;;10.00;7.40;;;;;;;6.14;70.28;98105.11;128330;1290;108695;-80
2022/04/09 04:46:10;;;;;;;11.00;6.80;;;;;;;6.08;70.26;98112.98;128227;1290;108830;-81
2022/04/09 04:49:14;;;;;;;9.30;6.60;;;;;;;6.03;70.23;98125.77;128057;1290;108853;-80
2022/04/09 04:52:18;;;;;;;9.60;6.60;;;;;;;5.89;70.53;98135.80;128116;1290;108832;-78
2022/04/09 04:55:22;;;;;;;10.20;7.10;;;;;;;5.77;70.66;98137.04;128046;1289;107890;-80
2022/04/09 04:58:26;;;;;;;10.20;6.10;;;;;;;5.65;72.02;98140.52;128065;1290;108792;-79
2022/04/09 05:01:37;;;;;;;11.80;6.80;;;;;;;5.55;71.51;98141.28;127748;1290;108756;-80
2022/04/09 05:04:41;;;;;;;12.30;7.10;;;;;;;5.56;71.90;98142.60;128125;1290;108783;-79
2022/04/09 05:07:46;;;;;;;9.90;6.40;;;;;;;5.56;72.16;98140.48;127931;1290;108743;-78
2022/04/09 05:10:49;;;;;;;9.30;6.30;;;;;;;5.54;72.01;98137.88;127823;1290;108713;-79
2022/04/09 05:13:54;;;;;;;12.00;6.40;;;;;;;5.51;71.62;98141.33;127777;1290;107735;-75
2022/04/09 05:16:59;;;;;;;9.00;6.00;;;;;;;5.55;71.23;98141.14;127759;1290;108938;-78
2022/04/09 05:20:05;;;;;;;7.60;5.30;;;;;;;5.63;71.43;98140.38;127926;1290;108737;-77
2022/04/09 05:23:08;;;;;;;8.30;5.50;;;;;;;5.69;71.72;98142.00;127983;1290;108711;-79
2022/04/09 05:26:11;;;;;;;8.20;5.50;;;;;;;5.80;71.25;98149.58;127948;1290;108761;-80
2022/04/09 05:29:15;;;;;;;8.90;5.70;;;;;;;5.90;71.17;98153.59;128312;1290;108908;-77
2022/04/09 05:32:18;;;;;;;8.90;5.70;;;;;;;5.96;71.12;98158.91;127999;1290;108674;-73
2022/04/09 05:35:21;;;;;;;9.40;5.30;;;;;;;5.96;71.15;98164.06;127974;1290;108759;-74
2022/04/09 05:38:28;;;;;;;9.80;5.70;;;;;;;5.96;71.16;98167.90;127995;1290;108716;-72
2022/04/09 05:41:32;;;;;;;7.70;4.50;;;;;;;6.03;71.03;98174.12;127899;1290;108737;-74
2022/04/09 05:44:36;;;;;;;8.40;4.60;;;;;;;6.08;71.16;98183.59;128169;1290;108764;-74
2022/04/09 05:47:41;;;;;;;7.90;4.50;;;;;;;6.08;71.43;98192.05;128195;1290;109200;-74
2022/04/09 05:50:44;;;;;;;8.60;4.60;;;;;;;6.07;71.09;98202.25;127831;1290;108771;-74
2022/04/09 05:53:47;;;;;;;7.40;4.70;;;;;;;6.18;71.18;98204.91;128095;1290;108671;-74
2022/04/09 05:56:50;;;;;;;8.90;5.30;;;;;;;6.29;70.96;98206.81;127794;1290;99177;-73
2022/04/09 05:59:54;;;;;;;6.80;4.90;;;;;;;6.43;70.78;98201.89;128015;1289;108795;-72
2022/04/09 06:02:56;;;;;;;9.00;5.20;;;;;;;6.55;70.60;98207.95;127712;1290;98065;-71
2022/04/09 06:06:06;;;;;;;6.70;4.80;;;;;;;6.57;70.56;98218.61;127771;1290;107632;-72
2022/04/09 06:09:14;;;;;;;9.10;5.40;;;;;;;6.49;70.59;98213.51;127699;1290;108788;-73
2022/04/09 06:12:27;;;;;;;11.70;5.30;;;;;;;6.55;70.51;98207.89;127672;1291;108736;-77
2022/04/09 06:15:38;;;;;;;9.60;5.40;;;;;;;6.72;70.78;98204.89;128163;1290;108814;-75
2022/04/09 06:18:44;;;;;;;11.60;6.00;;;;;;;6.92;70.81;98207.47;127988;1290;108880;-73
2022/04/09 06:21:47;;;;;;;10.80;5.90;;;;;;;7.05;70.50;98201.39;127735;1290;98155;-73
2022/04/09 06:24:54;;;;;;;10.40;5.70;;;;;;;7.20;70.57;98196.84;127862;1290;108961;-76
2022/04/09 06:27:58;;;;;;;9.50;5.60;;;;;;;7.33;70.55;98195.26;127787;1290;108832;-74
2022/04/09 06:31:02;;;;;;;10.30;5.80;;;;;;;7.46;70.51;98199.15;127909;1290;108686;-76
2022/04/09 06:34:06;;;;;;;7.60;5.30;;;;;;;7.59;70.19;98201.36;128083;1290;108716;-71
2022/04/09 06:37:10;;;;;;;10.00;6.00;;;;;;;7.68;70.28;98203.77;127665;1289;108113;-71
2022/04/09 06:40:13;;;;;;;9.20;6.20;;;;;;;7.74;70.28;98208.73;127660;1290;108909;-71
2022/04/09 06:43:16;;;;;;;11.20;6.50;;;;;;;7.81;70.08;98220.42;127587;1290;108789;-72
2022/04/09 06:46:31;;;;;;;12.70;7.30;;;;;;;7.88;70.03;98230.14;127734;1290;108913;-72
2022/04/09 06:49:54;;;;;;;10.00;6.00;;;;;;;7.94;70.09;98242.81;127734;1290;108685;-72
2022/04/09 06:52:59;;;;;;;11.40;5.80;;;;;;;8.01;69.99;98254.05;127763;1289;108666;-72
2022/04/09 06:56:08;;;;;;;11.10;6.90;;;;;;;8.07;70.01;98260.74;128141;1289;108745;-73
2022/04/09 06:59:11;;;;;;;13.50;7.40;;;;;;;8.18;70.19;98264.02;128017;1290;98032;-71
2022/04/09 07:02:14;;;;;;;11.20;6.90;;;;;;;8.32;69.96;98274.48;127831;1290;98036;-75
2022/04/09 07:05:17;;;;;;;11.20;6.60;;;;;;;8.45;70.06;98278.63;127872;1290;99084;-73
2022/04/09 07:08:20;;;;;;;9.70;5.90;;;;;;;8.53;69.57;98289.40;127739;1290;98042;-74
2022/04/09 07:11:23;;;;;;;10.50;6.60;;;;;;;8.56;69.48;98297.27;127702;1290;98042;-74
2022/04/09 07:14:26;;;;;;;8.70;5.80;;;;;;;8.60;69.60;98309.04;127789;1290;98687;-72
2022/04/09 07:17:29;;;;;;;9.80;5.40;;;;;;;8.62;69.23;98319.70;127965;1290;99084;-74
2022/04/09 07:20:35;;;;;;;10.60;5.30;;;;;;;8.64;69.24;98320.08;128008;1290;99081;-74
2022/04/09 07:23:38;;;;;;;8.80;5.00;;;;;;;8.64;69.00;98319.34;127905;1290;108927;-74
2022/04/09 07:26:40;;;;;;;9.70;5.40;;;;;;;8.67;69.12;98330.55;127861;1290;98445;-74
2022/04/09 07:29:43;;;;;;;8.60;5.50;;;;;;;8.69;69.02;98334.08;127744;1290;98010;-74
2022/04/09 07:32:47;;;;;;;8.70;5.30;;;;;;;8.70;69.02;98348.58;127735;1290;99223;-72
2022/04/09 07:35:49;;;;;;;8.30;5.10;;;;;;;8.72;68.78;98355.27;127792;1290;99198;-73
2022/04/09 07:38:52;;;;;;;6.40;5.00;;;;;;;8.76;69.03;98364.35;127847;1289;98769;-73
2022/04/09 07:41:55;;;;;;;9.20;5.30;;;;;;;8.79;68.55;98374.32;127869;1290;98118;-74
2022/04/09 07:44:57;;;;;;;9.70;5.00;;;;;;;8.78;68.65;98384.29;127756;1290;98666;-74
2022/04/09 07:48:01;;;;;;;7.10;5.20;;;;;;;8.82;68.61;98389.66;127726;1290;98444;-74
2022/04/09 07:51:04;;;;;;;6.90;4.60;;;;;;;8.91;68.32;98398.02;127870;1290;99107;-74
2022/04/09 07:54:07;;;;;;;9.10;5.50;;;;;;;9.00;68.15;98407.08;127790;1290;99220;-74
2022/04/09 07:57:10;;;;;;;7.30;4.90;;;;;;;9.13;67.86;98417.82;128014;1289;98133;-74
2022/04/09 08:00:15;;;;;;;102.00;52.20;;;;;;;9.23;67.95;98430.00;127821;1290;98009;-74
2022/04/09 08:03:18;;;;;;;86.00;38.40;;;;;;;9.31;67.87;98438.05;127826;1289;108749;-74
2022/04/09 08:06:20;;;;;;;156.10;63.80;;;;;;;9.39;67.82;98444.58;127983;1290;98044;-74
2022/04/09 08:09:23;;;;;;;110.00;51.10;;;;;;;9.41;67.47;98454.42;127977;1290;99248;-74
2022/04/09 08:12:26;;;;;;;22.80;12.90;;;;;;;9.40;67.45;98461.49;127863;1290;98451;-74
2022/04/09 08:15:28;;;;;;;14.20;8.90;;;;;;;9.33;66.85;98465.92;127755;1290;98019;-74
2022/04/09 08:18:31;;;;;;;11.20;8.10;;;;;;;9.19;67.13;98474.14;127825;1290;99232;-74
2022/04/09 08:21:34;;;;;;;14.00;8.80;;;;;;;9.22;67.43;98475.11;127839;1290;98046;-73
2022/04/09 08:24:39;;;;;;;14.50;10.40;;;;;;;9.25;67.15;98478.58;127773;1289;98077;-74
2022/04/09 08:27:43;;;;;;;59.40;34.10;;;;;;;9.25;66.99;98486.56;127801;1290;109008;-74
2022/04/09 08:30:46;;;;;;;46.30;27.00;;;;;;;9.28;66.58;98482.89;128016;1290;108799;-74
2022/04/09 08:33:49;;;;;;;106.70;48.60;;;;;;;9.25;66.56;98479.30;127884;1290;99203;-74
2022/04/09 08:36:51;;;;;;;43.90;17.60;;;;;;;9.29;66.52;98478.45;127979;1290;98830;-74
2022/04/09 08:39:55;;;;;;;37.10;22.30;;;;;;;9.26;66.71;98479.70;127994;1290;98042;-75
2022/04/09 08:42:58;;;;;;;15.50;10.90;;;;;;;9.23;66.34;98498.73;127853;1290;98874;-74
2022/04/09 08:46:02;;;;;;;12.40;8.60;;;;;;;9.14;66.02;98504.81;127962;1290;98872;-74
2022/04/09 08:49:06;;;;;;;13.40;9.20;;;;;;;9.08;64.82;98508.71;127979;1290;108755;-74
2022/04/09 08:52:10;;;;;;;14.40;8.80;;;;;;;8.94;64.73;98511.98;128035;1289;108618;-74
2022/04/09 08:55:13;;;;;;;14.70;9.60;;;;;;;8.81;63.49;98512.84;127998;1290;108638;-74
2022/04/09 08:58:16;;;;;;;12.50;8.70;;;;;;;8.81;64.92;98506.42;127976;1289;108739;-74
2022/04/09 09:01:21;;;;;;;14.40;8.90;;;;;;;8.94;64.58;98503.96;127969;1290;98007;-74
2022/04/09 09:04:24;;;;;;;17.70;9.00;;;;;;;9.07;64.62;98511.20;128002;1290;108799;-74
2022/04/09 09:07:28;;;;;;;14.20;8.20;;;;;;;9.03;61.75;98527.41;127972;1290;98011;-74
2022/04/09 09:10:31;;;;;;;11.30;7.40;;;;;;;8.89;60.98;98536.30;128015;1290;108744;-74
2022/04/09 09:13:47;;;;;;;14.30;7.90;;;;;;;8.78;61.88;98537.18;127997;1290;108773;-75
2022/04/09 09:16:50;;;;;;;19.60;9.60;;;;;;;8.74;62.48;98534.50;127869;1290;109127;-75
2022/04/09 09:19:53;;;;;;;9.40;5.60;;;;;;;8.77;62.18;98541.75;127926;1290;108456;-75
2022/04/09 09:22:56;;;;;;;13.40;6.80;;;;;;;8.64;59.58;98544.11;127945;1290;99226;-74
2022/04/09 09:26:00;;;;;;;10.20;6.10;;;;;;;8.56;60.68;98552.63;127827;1290;98146;-74
2022/04/09 09:29:02;;;;;;;12.70;6.30;;;;;;;8.54;60.42;98562.13;127733;1290;108849;-75
2022/04/09 09:32:07;;;;;;;30.20;10.60;;;;;;;8.54;61.19;98564.08;127947;1290;98030;-74
2022/04/09 09:35:10;;;;;;;36.80;18.50;;;;;;;8.80;62.03;98573.95;127875;1290;108752;-74
2022/04/09 09:38:20;;;;;;;15.10;8.40;;;;;;;9.17;59.77;98576.08;127820;1290;99222;-72
2022/04/09 09:41:24;;;;;;;55.30;22.90;;;;;;;9.38;59.17;98581.51;128017;1289;108736;-77
2022/04/09 09:44:30;;;;;;;14.80;6.70;;;;;;;9.46;57.92;98582.16;127784;1290;108724;-75
2022/04/09 09:47:33;;;;;;;13.50;6.60;;;;;;;9.32;57.23;98593.77;129601;1289;108761;-70
2022/04/09 09:50:42;;;;;;;8.00;5.50;;;;;;;9.09;56.98;98593.88;127679;1290;98770;-68
2022/04/09 09:53:45;;;;;;;56.60;22.40;;;;;;;8.85;57.86;98600.95;127587;1290;109002;-71
2022/04/09 09:56:47;;;;;;;12.20;6.40;;;;;;;8.90;59.61;98607.73;127892;1290;98028;-71
2022/04/09 09:59:53;;;;;;;18.60;8.70;;;;;;;8.92;57.92;98616.52;127840;1290;98052;-71
2022/04/09 10:02:57;;;;;;;13.20;7.60;;;;;;;8.82;58.02;98625.95;127849;1290;109032;-71
2022/04/09 10:06:00;;;;;;;35.60;16.40;;;;;;;8.77;57.75;98634.42;128096;1290;107624;-72
2022/04/09 10:09:05;;;;;;;10.40;5.70;;;;;;;8.79;57.04;98651.91;128053;1290;99089;-71
2022/04/09 10:12:13;;;;;;;10.40;6.30;;;;;;;8.67;56.01;98660.34;128030;1290;108829;-69
2022/04/09 10:15:18;;;;;;;75.80;30.80;;;;;;;8.69;58.59;98651.67;127605;1289;108978;-72
2022/04/09 10:18:23;;;;;;;57.30;24.60;;;;;;;8.90;58.88;98658.36;127759;1290;108486;-71
2022/04/09 10:21:28;;;;;;;35.70;16.30;;;;;;;9.10;58.31;98667.89;127948;1290;108765;-70
2022/04/09 10:24:32;;;;;;;39.40;20.30;;;;;;;9.29;57.17;98664.92;127634;1290;108734;-71
2022/04/09 10:27:37;;;;;;;28.30;14.40;;;;;;;9.54;58.15;98658.41;127888;1290;108462;-70
2022/04/09 10:30:41;;;;;;;57.70;28.70;;;;;;;9.72;57.51;98657.08;127914;1290;109640;-71
2022/04/09 10:33:55;;;;;;;9.60;4.80;;;;;;;9.92;56.33;98670.66;127369;1290;108878;-69
2022/04/09 10:37:05;;;;;;;12.30;5.90;;;;;;;9.86;55.63;98672.48;127716;1288;107752;-70
2022/04/09 10:40:09;;;;;;;19.00;13.10;;;;;;;9.62;55.55;98677.29;127541;1290;108781;-70
2022/04/09 10:43:39;;;;;;;8.70;7.20;;;;;;;9.47;55.96;98682.61;127467;1289;108747;-70
2022/04/09 10:46:43;;;;;;;6.60;4.30;;;;;;;9.29;54.90;98691.41;127433;1290;108848;-70
2022/04/09 10:50:11;;;;;;;38.60;20.50;;;;;;;9.10;55.83;98685.02;127545;1290;109195;-71
2022/04/09 10:53:17;;;;;;;15.20;8.20;;;;;;;9.30;55.72;98687.34;127523;1291;108728;-71
2022/04/09 10:56:21;;;;;;;12.00;6.10;;;;;;;9.47;55.34;98689.58;127464;1290;108729;-71
2022/04/09 10:59:34;;;;;;;8.00;4.60;;;;;;;9.57;53.44;98691.92;127614;1290;108823;-71
2022/04/09 11:02:37;;;;;;;8.40;3.80;;;;;;;9.70;55.08;98703.95;127787;1290;108834;-71
2022/04/09 11:05:41;;;;;;;5.40;3.70;;;;;;;9.77;54.34;98701.64;127359;1290;98024;-72
2022/04/09 11:08:56;;;;;;;4.10;2.80;;;;;;;9.78;53.78;98703.94;127285;1290;108836;-72
2022/04/09 11:12:02;;;;;;;4.20;2.50;;;;;;;9.87;54.10;98708.70;127507;1292;107477;-72
2022/04/09 11:15:07;;;;;;;5.90;3.10;;;;;;;10.18;54.60;98714.54;127499;1294;108745;-71
2022/04/09 11:18:11;;;;;;;7.80;4.00;;;;;;;10.37;51.05;98722.36;127241;1293;107915;-71
2022/04/09 11:21:14;;;;;;;106.50;39.90;;;;;;;10.33;51.97;98727.23;126972;1293;108527;-70
2022/04/09 11:24:17;;;;;;;18.00;9.80;;;;;;;10.39;53.11;98728.41;126732;1293;108925;-70
2022/04/09 11:27:20;;;;;;;13.50;7.00;;;;;;;10.36;49.85;98739.20;126718;1293;109015;-68
2022/04/09 11:30:23;;;;;;;7.20;4.60;;;;;;;10.21;45.20;98744.38;126746;1293;99740;-71
2022/04/09 11:33:26;;;;;;;9.70;5.20;;;;;;;10.26;49.53;98747.05;127036;1293;98021;-71
2022/04/09 11:36:29;;;;;;;54.20;26.60;;;;;;;10.41;48.22;98759.27;127297;1292;98038;-70
2022/04/09 11:39:39;;;;;;;10.90;5.90;;;;;;;10.47;47.97;98760.77;128081;1290;98736;-71
2022/04/09 11:42:47;;;;;;;9.10;4.40;;;;;;;10.31;43.92;98770.92;127848;1290;108751;-70
2022/04/09 11:45:50;;;;;;;15.10;6.10;;;;;;;10.13;43.91;98760.52;127933;1290;108943;-71
2022/04/09 11:49:00;;;;;;;25.90;11.70;;;;;;;10.14;46.26;98757.20;127350;1290;108960;-68
2022/04/09 11:52:04;;;;;;;72.90;29.40;;;;;;;10.26;46.97;98763.14;127540;1290;108696;-71
2022/04/09 11:55:10;;;;;;;16.90;9.70;;;;;;;10.49;46.84;98776.95;127597;1290;108845;-70
2022/04/09 11:58:14;;;;;;;12.10;6.00;;;;;;;10.60;47.87;98768.83;127650;1289;108771;-69
2022/04/09 12:01:18;;;;;;;14.80;6.10;;;;;;;10.55;43.65;98772.30;127553;1289;108738;-71
2022/04/09 12:04:22;;;;;;;6.30;3.50;;;;;;;10.44;44.59;98768.86;127797;1290;108745;-72
2022/04/09 12:07:28;;;;;;;10.30;5.40;;;;;;;10.30;42.30;98782.55;127755;1290;108802;-75
2022/04/09 12:10:31;;;;;;;11.00;4.60;;;;;;;10.19;44.57;98786.94;127721;1290;108930;-77
2022/04/09 12:13:36;;;;;;;25.40;15.00;;;;;;;10.30;45.66;98792.73;127697;1290;108745;-71
2022/04/09 12:16:39;;;;;;;23.10;12.70;;;;;;;10.45;45.24;98800.48;127984;1290;108798;-71
2022/04/09 12:19:43;;;;;;;30.50;21.10;;;;;;;10.47;45.28;98803.19;128034;1290;108794;-72
2022/04/09 12:22:55;;;;;;;10.50;5.60;;;;;;;10.64;44.76;98808.17;127561;1290;331939;-73
2022/04/09 12:25:59;;;;;;;4.70;3.40;;;;;;;10.65;42.22;98822.09;127762;1290;109251;-71
2022/04/09 12:29:11;;;;;;;18.40;13.80;;;;;;;10.35;42.10;98811.86;127882;1290;108700;-71
2022/04/09 12:32:19;;;;;;;9.00;5.50;;;;;;;10.26;43.21;98809.27;127933;1290;108718;-71
2022/04/09 12:35:30;;;;;;;59.60;38.60;;;;;;;10.29;43.15;98812.73;127738;1290;108719;-73
2022/04/09 12:38:35;;;;;;;6.30;4.10;;;;;;;10.45;43.87;98811.73;127768;1290;108911;-74
2022/04/09 12:41:46;;;;;;;5.70;3.40;;;;;;;10.50;42.58;98801.83;127871;1290;108782;-72
2022/04/09 12:44:49;;;;;;;8.30;4.40;;;;;;;10.48;41.71;98813.52;127908;1291;107733;-72
2022/04/09 12:47:58;;;;;;;23.40;14.60;;;;;;;10.42;42.61;98813.35;127776;1290;98484;-72
2022/04/09 12:51:02;;;;;;;43.00;24.20;;;;;;;10.53;41.65;98816.63;127718;1290;105849;-72
2022/04/09 12:54:05;;;;;;;40.50;22.80;;;;;;;10.64;43.08;98823.48;127547;1294;99364;-72
2022/04/09 12:57:09;;;;;;;72.40;40.70;;;;;;;10.71;42.84;98821.21;127574;1294;98116;-73
2022/04/09 13:00:14;;;;;;;12.80;7.00;;;;;;;10.70;42.73;98817.63;127593;1291;108949;-72
2022/04/09 13:03:17;;;;;;;6.10;3.60;;;;;;;10.60;40.83;98840.55;127565;1290;107689;-75
2022/04/09 13:06:20;;;;;;;11.90;6.40;;;;;;;10.37;40.10;98842.58;127590;1293;99203;-76
2022/04/09 13:09:22;;;;;;;18.90;11.50;;;;;;;10.28;41.32;98843.23;127537;1291;98685;-75
2022/04/09 13:12:25;;;;;;;27.40;16.20;;;;;;;10.27;42.07;98848.51;127571;1290;98449;-72
2022/04/09 13:15:28;;;;;;;6.80;4.40;;;;;;;10.41;42.85;98853.30;127536;1291;98792;-72
2022/04/09 13:18:31;;;;;;;109.60;35.10;;;;;;;10.55;42.93;98860.41;127574;1290;98039;-72
2022/04/09 13:21:33;;;;;;;17.50;9.20;;;;;;;10.64;40.61;98865.67;127639;1290;98014;-72
2022/04/09 13:24:36;;;;;;;8.40;4.80;;;;;;;10.63;40.26;98866.08;127604;1290;98804;-71
2022/04/09 13:27:39;;;;;;;5.30;3.30;;;;;;;10.70;41.52;98865.23;127469;1291;98824;-75
2022/04/09 13:30:42;;;;;;;5.70;3.60;;;;;;;10.77;41.38;98865.45;127744;1290;98010;-74
2022/04/09 13:33:44;;;;;;;5.60;3.60;;;;;;;10.73;39.96;98874.39;127831;1290;99181;-73
2022/04/09 13:36:47;;;;;;;6.40;4.80;;;;;;;10.59;40.22;98884.77;127799;1290;98574;-72
2022/04/09 13:39:50;;;;;;;7.00;4.80;;;;;;;10.44;40.49;98882.19;127590;1290;98588;-73
2022/04/09 13:42:54;;;;;;;5.80;3.70;;;;;;;10.28;39.78;98887.73;127680;1290;99198;-72
2022/04/09 13:45:58;;;;;;;6.70;4.20;;;;;;;10.08;39.06;98893.30;127633;1290;99093;-70
2022/04/09 13:49:01;;;;;;;9.90;4.20;;;;;;;9.92;40.81;98891.27;127729;1290;99199;-69
2022/04/09 13:52:05;;;;;;;6.40;3.60;;;;;;;9.91;41.88;98892.33;127465;1290;98592;-72
2022/04/09 13:55:09;;;;;;;6.00;3.90;;;;;;;9.90;40.76;98902.60;127624;1290;98620;-80
2022/04/09 13:58:12;;;;;;;7.20;4.30;;;;;;;9.79;41.11;98897.92;127739;1290;99213;-75
2022/04/09 14:01:15;;;;;;;6.10;3.80;;;;;;;9.89;41.76;98896.80;127657;1290;99239;-75
2022/04/09 14:04:19;;;;;;;5.30;3.90;;;;;;;9.96;41.14;98891.66;127623;1290;99979;-75
2022/04/09 14:07:22;;;;;;;7.50;4.10;;;;;;;9.97;40.68;98901.02;127620;1290;99229;-76
2022/04/09 14:10:24;;;;;;;5.30;3.90;;;;;;;9.84;40.21;98909.08;127663;1290;99217;-76
2022/04/09 14:13:27;;;;;;;7.20;3.20;;;;;;;9.69;39.99;98910.31;127628;1290;98049;-77
2022/04/09 14:16:30;;;;;;;4.90;3.40;;;;;;;9.66;41.02;98906.11;127621;1290;99199;-76